createdAt,value
2023-02-06T00:00:40.521Z,101955.75
2023-02-06T00:01:28.058Z,101962.69
2023-02-06T00:02:15.458Z,101954.91
2023-02-06T00:03:02.733Z,101958.56
2023-02-06T00:03:49.981Z,101962.34
2023-02-06T00:04:36.982Z,101971.25
2023-02-06T00:05:24.215Z,101956.19
2023-02-06T00:06:11.756Z,101954.41
2023-02-06T00:06:58.864Z,101968.53
2023-02-06T00:07:46.174Z,101959.88
2023-02-06T00:08:35.604Z,101965.34
2023-02-06T00:09:22.636Z,101962.63
2023-02-06T00:10:09.989Z,101967.75
2023-02-06T00:10:57.270Z,101958.16
2023-02-06T00:11:44.334Z,101965.91
2023-02-06T00:12:31.261Z,101971.31
2023-02-06T00:13:18.587Z,101968.75
2023-02-06T00:14:07.175Z,101965.06
2023-02-06T00:14:54.141Z,101966.84
2023-02-06T00:15:41.298Z,101965.22
2023-02-06T00:16:31.418Z,101964.34
2023-02-06T00:17:18.469Z,101972.22
2023-02-06T00:18:05.577Z,101971.22
2023-02-06T00:18:54.193Z,101971.94
2023-02-06T00:19:41.354Z,101978.03
2023-02-06T00:20:28.350Z,101975.63
2023-02-06T00:21:15.956Z,101983.78
2023-02-06T00:22:03.158Z,101983.00
2023-02-06T00:22:50.623Z,101981.16
2023-02-06T00:23:37.878Z,101979.37
2023-02-06T00:24:25.013Z,101983.25
2023-02-06T00:25:12.729Z,101980.62
2023-02-06T00:25:59.813Z,101984.16
2023-02-06T00:26:46.920Z,101984.00
2023-02-06T00:27:34.341Z,101976.13
2023-02-06T00:28:21.441Z,101983.00
2023-02-06T00:29:08.426Z,101982.97
2023-02-06T00:29:55.583Z,101984.72
2023-02-06T00:30:42.574Z,101985.59
2023-02-06T00:31:29.709Z,101985.56
2023-02-06T00:32:16.756Z,101979.37
2023-02-06T00:33:03.831Z,101979.47
2023-02-06T00:33:51.056Z,101976.84
2023-02-06T00:34:40.475Z,101980.31
2023-02-06T00:35:27.512Z,101978.69
2023-02-06T00:36:14.874Z,101982.47
2023-02-06T00:37:02.148Z,101989.78
2023-02-06T00:37:49.472Z,101980.06
2023-02-06T00:38:39.987Z,101984.34
2023-02-06T00:39:27.192Z,101994.72
2023-02-06T00:40:14.058Z,101986.78
2023-02-06T00:41:01.220Z,101996.50
2023-02-06T00:41:48.144Z,101991.31
2023-02-06T00:42:35.308Z,101989.59
2023-02-06T00:43:22.549Z,101995.81
2023-02-06T00:44:09.563Z,101993.06
2023-02-06T00:44:56.714Z,101993.00
2023-02-06T00:45:43.745Z,101996.72
2023-02-06T00:46:32.899Z,101988.84
2023-02-06T00:47:20.031Z,101989.53
2023-02-06T00:48:07.353Z,101992.16
2023-02-06T00:48:54.587Z,101994.78
2023-02-06T00:49:41.505Z,101998.25
2023-02-06T00:50:28.462Z,101991.25
2023-02-06T00:51:15.381Z,101993.41
2023-02-06T00:52:02.498Z,101993.34
2023-02-06T00:52:49.674Z,101993.41
2023-02-06T00:53:36.731Z,101988.97
2023-02-06T00:54:23.740Z,101989.69
2023-02-06T00:55:11.308Z,101984.41
2023-02-06T00:55:58.220Z,101989.81
2023-02-06T00:56:45.110Z,101994.31
2023-02-06T00:57:32.149Z,101996.97
2023-02-06T00:58:19.207Z,101995.22
2023-02-06T00:59:06.848Z,101995.16
2023-02-06T00:59:54.609Z,101997.69
2023-02-06T01:00:41.768Z,102000.34
2023-02-06T01:01:29.371Z,101997.94
2023-02-06T01:02:16.340Z,102008.50
2023-02-06T01:03:03.697Z,102004.94
2023-02-06T01:03:50.713Z,101994.41
2023-02-06T01:04:37.684Z,102004.88
2023-02-06T01:05:25.070Z,102001.50
2023-02-06T01:06:12.097Z,102007.50
2023-02-06T01:06:59.065Z,101997.78
2023-02-06T01:07:46.112Z,102006.72
2023-02-06T01:08:33.265Z,101994.62
2023-02-06T01:09:20.296Z,101999.00
2023-02-06T01:10:09.361Z,102000.72
2023-02-06T01:10:56.459Z,101996.28
2023-02-06T01:11:43.434Z,101999.66
2023-02-06T01:12:30.464Z,102000.56
2023-02-06T01:13:17.495Z,101998.06
2023-02-06T01:14:04.588Z,102002.50
2023-02-06T01:14:51.706Z,101999.97
2023-02-06T01:17:29.779Z,101998.88
2023-02-06T01:18:16.863Z,101997.19
2023-02-06T01:19:04.000Z,102002.41
2023-02-06T01:19:51.186Z,102002.31
2023-02-06T01:20:40.377Z,101999.75
2023-02-06T01:21:27.428Z,102001.47
2023-02-06T01:22:14.421Z,102007.56
2023-02-06T01:23:01.600Z,102002.28
2023-02-06T01:23:50.971Z,102002.31
2023-02-06T01:24:38.069Z,101996.25
2023-02-06T01:25:25.214Z,101994.62
2023-02-06T01:26:16.456Z,102003.41
2023-02-06T01:27:04.002Z,101996.31
2023-02-06T01:27:51.209Z,101998.94
2023-02-06T01:28:39.847Z,101992.09
2023-02-06T01:29:26.896Z,101986.84
2023-02-06T01:30:14.386Z,101994.59
2023-02-06T01:31:01.703Z,101992.75
2023-02-06T01:31:48.751Z,101997.13
2023-02-06T01:32:39.895Z,101994.41
2023-02-06T01:33:27.012Z,101990.88
2023-02-06T01:34:14.614Z,102000.50
2023-02-06T01:35:01.712Z,101997.88
2023-02-06T01:35:56.648Z,101989.06
2023-02-06T01:36:43.710Z,102003.22
2023-02-06T01:37:30.936Z,102004.97
2023-02-06T01:38:18.335Z,102003.09
2023-02-06T01:39:06.762Z,102006.63
2023-02-06T01:39:53.892Z,102001.28
2023-02-06T01:40:40.887Z,102001.38
2023-02-06T01:41:27.933Z,102001.38
2023-02-06T01:42:15.054Z,101997.03
2023-02-06T01:43:02.392Z,102000.56
2023-02-06T01:44:08.256Z,102001.41
2023-02-06T01:45:20.220Z,101994.41
2023-02-06T01:46:08.155Z,102003.88
2023-02-06T01:46:56.779Z,102007.47
2023-02-06T01:47:43.951Z,102005.66
2023-02-06T01:48:44.212Z,101999.59
2023-02-06T01:49:37.406Z,102002.16
2023-02-06T01:50:24.531Z,102002.31
2023-02-06T01:51:21.035Z,102004.94
2023-02-06T01:52:17.439Z,102007.56
2023-02-06T01:53:06.393Z,102003.25
2023-02-06T01:54:05.033Z,102002.38
2023-02-06T01:54:58.699Z,102003.22
2023-02-06T01:55:48.061Z,102005.03
2023-02-06T01:56:43.522Z,101991.94
2023-02-06T01:57:30.864Z,101999.87
2023-02-06T01:58:22.176Z,101999.00
2023-02-06T01:59:09.418Z,102003.47
2023-02-06T02:00:00.282Z,102002.53
2023-02-06T02:00:48.534Z,102001.59
2023-02-06T02:01:35.677Z,102005.97
2023-02-06T02:02:24.200Z,101994.69
2023-02-06T02:03:11.827Z,102005.19
2023-02-06T02:04:05.211Z,101998.31
2023-02-06T02:04:52.587Z,101996.59
2023-02-06T02:05:41.224Z,101996.63
2023-02-06T02:06:28.551Z,102002.66
2023-02-06T02:07:22.207Z,101999.09
2023-02-06T02:08:19.852Z,102000.94
2023-02-06T02:09:07.647Z,102006.22
2023-02-06T02:09:55.056Z,102011.41
2023-02-06T02:10:42.219Z,101996.44
2023-02-06T02:11:34.872Z,101992.00
2023-02-06T02:12:22.068Z,101996.41
2023-02-06T02:13:10.090Z,101998.94
2023-02-06T02:13:57.375Z,101999.84
2023-02-06T02:14:46.710Z,101998.88
2023-02-06T02:16:17.145Z,102001.56
2023-02-06T02:17:19.123Z,101992.91
2023-02-06T02:18:42.308Z,102000.91
2023-02-06T02:19:53.897Z,101990.38
2023-02-06T02:21:02.421Z,101991.31
2023-02-06T02:22:00.518Z,101999.28
2023-02-06T02:23:02.650Z,101987.88
2023-02-06T02:23:54.491Z,101990.38
2023-02-06T02:24:55.700Z,101986.91
2023-02-06T02:26:03.809Z,101985.09
2023-02-06T02:27:02.993Z,101984.28
2023-02-06T02:28:08.592Z,101984.25
2023-02-06T02:29:04.402Z,101986.88
2023-02-06T02:30:11.903Z,101977.34
2023-02-06T02:31:26.395Z,101975.59
2023-02-06T02:32:42.212Z,101977.47
2023-02-06T02:33:54.169Z,101968.75
2023-02-06T02:34:53.698Z,101981.00
2023-02-06T02:35:52.748Z,101977.56
2023-02-06T02:36:47.210Z,101980.16
2023-02-06T02:37:42.603Z,101973.13
2023-02-06T02:39:01.113Z,101974.88
2023-02-06T02:40:01.716Z,101969.53
2023-02-06T02:40:58.722Z,101971.31
2023-02-06T02:41:54.074Z,101972.13
2023-02-06T02:42:47.534Z,101962.53
2023-02-06T02:43:45.284Z,101968.72
2023-02-06T02:44:55.351Z,101971.44
2023-02-06T02:45:59.235Z,101963.50
2023-02-06T02:46:49.976Z,101967.81
2023-02-06T02:47:45.964Z,101967.84
2023-02-06T02:48:39.083Z,101973.16
2023-02-06T02:49:29.774Z,101979.22
2023-02-06T02:50:18.729Z,101984.47
2023-02-06T02:51:06.121Z,101981.88
2023-02-06T02:51:53.828Z,101975.75
2023-02-06T02:52:40.903Z,101979.22
2023-02-06T02:53:28.496Z,101974.84
2023-02-06T02:54:15.537Z,101972.22
2023-02-06T02:55:03.453Z,101969.63
2023-02-06T02:55:50.881Z,101979.28
2023-02-06T02:56:38.228Z,101986.25
2023-02-06T02:57:29.558Z,101983.63
2023-02-06T02:58:20.277Z,101980.19
2023-02-06T02:59:20.531Z,101985.44
2023-02-06T03:00:08.088Z,101985.38
2023-02-06T03:01:04.241Z,101968.78
2023-02-06T03:02:01.192Z,101974.88
2023-02-06T03:02:49.637Z,101974.06
2023-02-06T03:03:38.712Z,101973.19
2023-02-06T03:04:40.251Z,101976.69
2023-02-06T03:05:28.272Z,101977.50
2023-02-06T03:06:54.985Z,101982.75
2023-02-06T03:07:56.533Z,101986.25
2023-02-06T03:08:49.942Z,101999.31
2023-02-06T03:10:03.352Z,101987.94
2023-02-06T03:11:15.709Z,101988.88
2023-02-06T03:12:45.799Z,101994.09
2023-02-06T03:13:39.159Z,101996.75
2023-02-06T03:14:33.019Z,101998.44
2023-02-06T03:15:41.632Z,102001.06
2023-02-06T03:16:57.865Z,102002.78
2023-02-06T03:18:19.867Z,102013.28
2023-02-06T03:19:23.610Z,102014.22
2023-02-06T03:20:12.112Z,102004.62
2023-02-06T03:21:00.509Z,102012.53
2023-02-06T03:21:48.087Z,102007.19
2023-02-06T03:22:36.130Z,102009.81
2023-02-06T03:23:27.648Z,102014.25
2023-02-06T03:24:18.877Z,102006.37
2023-02-06T03:25:11.180Z,101999.44
2023-02-06T03:26:01.300Z,101996.06
2023-02-06T03:26:49.780Z,102000.41
2023-02-06T03:27:38.971Z,101996.09
2023-02-06T03:28:29.208Z,101994.28
2023-02-06T03:29:17.359Z,101991.69
2023-02-06T03:30:06.419Z,102004.66
2023-02-06T03:30:56.625Z,102005.56
2023-02-06T03:31:53.737Z,102005.47
2023-02-06T03:32:46.752Z,102006.37
2023-02-06T03:33:41.006Z,102004.62
2023-02-06T03:34:48.672Z,102008.09
2023-02-06T03:35:37.905Z,102004.59
2023-02-06T03:36:25.219Z,102015.91
2023-02-06T03:37:13.299Z,102008.88
2023-02-06T03:38:00.832Z,102011.66
2023-02-06T03:38:50.702Z,102016.84
2023-02-06T03:39:38.022Z,102014.19
2023-02-06T03:40:27.626Z,102009.94
2023-02-06T03:41:16.319Z,102003.00
2023-02-06T03:42:05.166Z,102011.81
2023-02-06T03:42:57.373Z,102007.44
2023-02-06T03:43:46.670Z,102010.91
2023-02-06T03:44:40.598Z,102017.84
2023-02-06T03:45:37.988Z,102011.69
2023-02-06T03:46:26.560Z,102010.00
2023-02-06T03:47:15.819Z,102017.88
2023-02-06T03:48:06.506Z,102006.53
2023-02-06T03:48:57.058Z,102016.06
2023-02-06T03:49:43.896Z,102011.66
2023-02-06T03:50:32.371Z,102010.75
2023-02-06T03:51:26.537Z,102016.84
2023-02-06T03:52:16.579Z,102010.78
2023-02-06T03:53:04.859Z,102017.81
2023-02-06T03:53:56.217Z,102012.53
2023-02-06T03:54:47.246Z,102019.44
2023-02-06T03:55:34.725Z,102019.44
2023-02-06T03:56:44.523Z,102010.72
2023-02-06T03:57:32.760Z,102018.59
2023-02-06T03:58:19.898Z,102010.81
2023-02-06T03:59:06.970Z,102011.66
2023-02-06T03:59:54.148Z,102006.37
2023-02-06T04:00:42.672Z,102010.84
2023-02-06T04:01:29.924Z,102006.59
2023-02-06T04:02:17.466Z,102016.19
2023-02-06T04:03:05.385Z,102020.50
2023-02-06T04:03:52.621Z,102026.59
2023-02-06T04:04:42.845Z,102019.56
2023-02-06T04:05:30.225Z,102018.66
2023-02-06T04:06:17.446Z,102025.63
2023-02-06T04:07:25.621Z,102016.87
2023-02-06T04:08:12.672Z,102025.66
2023-02-06T04:08:59.716Z,102020.44
2023-02-06T04:09:46.780Z,102020.44
2023-02-06T04:10:34.028Z,102014.28
2023-02-06T04:11:21.121Z,102015.19
2023-02-06T04:12:08.441Z,102016.19
2023-02-06T04:12:55.589Z,102020.53
2023-02-06T04:13:42.775Z,102023.06
2023-02-06T04:14:29.741Z,102021.31
2023-02-06T04:15:16.816Z,102024.78
2023-02-06T04:16:04.334Z,102021.31
2023-02-06T04:16:52.002Z,102023.13
2023-02-06T04:17:53.575Z,102032.63
2023-02-06T04:18:45.087Z,102026.50
2023-02-06T04:19:32.602Z,102024.00
2023-02-06T04:20:20.685Z,102022.22
2023-02-06T04:21:08.397Z,102023.06
2023-02-06T04:21:55.490Z,102028.31
2023-02-06T04:22:42.856Z,102022.25
2023-02-06T04:23:29.979Z,102030.91
2023-02-06T04:24:17.196Z,102028.25
2023-02-06T04:25:04.335Z,102030.00
2023-02-06T04:25:54.540Z,102016.84
2023-02-06T04:26:41.742Z,102023.81
2023-02-06T04:27:28.925Z,102020.31
2023-02-06T04:28:16.017Z,102016.00
2023-02-06T04:29:03.151Z,102025.66
2023-02-06T04:29:52.551Z,102021.31
2023-02-06T04:30:39.803Z,102017.81
2023-02-06T04:31:27.249Z,102017.75
2023-02-06T04:32:14.336Z,102013.41
2023-02-06T04:33:01.415Z,102007.31
2023-02-06T04:33:48.487Z,102012.53
2023-02-06T04:34:36.844Z,102012.56
2023-02-06T04:35:24.072Z,102009.91
2023-02-06T04:36:11.167Z,102012.53
2023-02-06T04:36:58.778Z,102014.31
2023-02-06T04:37:45.950Z,102019.56
2023-02-06T04:38:33.046Z,102022.12
2023-02-06T04:39:20.129Z,102026.50
2023-02-06T04:40:07.561Z,102016.03
2023-02-06T04:40:54.749Z,102016.03
2023-02-06T04:41:42.088Z,102014.31
2023-02-06T04:42:29.327Z,102013.47
2023-02-06T04:43:16.393Z,102009.97
2023-02-06T04:44:03.485Z,102012.56
2023-02-06T04:44:50.809Z,102006.41
2023-02-06T04:45:38.266Z,102009.03
2023-02-06T04:46:25.884Z,102013.44
2023-02-06T04:47:13.109Z,102016.87
2023-02-06T04:48:00.231Z,102018.69
2023-02-06T04:48:47.982Z,102016.94
2023-02-06T04:49:35.139Z,102018.75
2023-02-06T04:50:22.318Z,102014.38
2023-02-06T04:51:09.540Z,102017.88
2023-02-06T04:51:56.882Z,102011.78
2023-02-06T04:52:43.999Z,102015.19
2023-02-06T04:53:31.112Z,102009.09
2023-02-06T04:54:18.279Z,102016.91
2023-02-06T04:55:05.541Z,102015.22
2023-02-06T04:55:52.595Z,102010.91
2023-02-06T04:56:39.788Z,102019.56
2023-02-06T04:57:27.398Z,102020.47
2023-02-06T04:58:14.559Z,102021.38
2023-02-06T04:59:01.886Z,102018.69
2023-02-06T04:59:49.140Z,102018.69
2023-02-06T05:00:38.757Z,102018.78
2023-02-06T05:01:26.259Z,102022.28
2023-02-06T05:02:13.401Z,102017.03
2023-02-06T05:03:00.463Z,102017.88
2023-02-06T05:03:47.854Z,102015.31
2023-02-06T05:04:35.076Z,102017.06
2023-02-06T05:05:22.327Z,102011.81
2023-02-06T05:06:09.370Z,102020.53
2023-02-06T05:06:56.509Z,102012.59
2023-02-06T05:07:43.498Z,102016.06
2023-02-06T05:08:31.121Z,102023.06
2023-02-06T05:09:18.213Z,102021.31
2023-02-06T05:10:05.624Z,102010.00
2023-02-06T05:10:52.693Z,102014.38
2023-02-06T05:11:39.955Z,102012.59
2023-02-06T05:12:30.239Z,102014.31
2023-02-06T05:13:17.351Z,102009.91
2023-02-06T05:14:04.698Z,102009.06
2023-02-06T05:14:52.164Z,102016.03
2023-02-06T05:15:39.862Z,102014.28
2023-02-06T05:16:27.103Z,102016.03
2023-02-06T05:17:14.198Z,102008.25
2023-02-06T05:18:01.260Z,102012.59
2023-02-06T05:18:48.367Z,102016.94
2023-02-06T05:19:35.542Z,102017.00
2023-02-06T05:20:22.599Z,102010.97
2023-02-06T05:21:09.707Z,102017.97
2023-02-06T05:21:56.989Z,102020.59
2023-02-06T05:22:44.104Z,102024.91
2023-02-06T05:23:32.875Z,102023.13
2023-02-06T05:24:19.960Z,102024.84
2023-02-06T05:25:07.605Z,102022.16
2023-02-06T05:25:54.793Z,102028.25
2023-02-06T05:26:41.768Z,102024.75
2023-02-06T05:27:28.860Z,102033.50
2023-02-06T05:28:15.916Z,102027.47
2023-02-06T05:29:03.195Z,102027.53
2023-02-06T05:29:50.403Z,102029.25
2023-02-06T05:30:37.442Z,102028.34
2023-02-06T05:31:24.713Z,102030.09
2023-02-06T05:32:11.844Z,102026.50
2023-02-06T05:32:59.121Z,102023.91
2023-02-06T05:33:47.455Z,102023.91
2023-02-06T05:34:34.522Z,102017.81
2023-02-06T05:35:21.623Z,102019.53
2023-02-06T05:36:09.198Z,102021.31
2023-02-06T05:36:56.240Z,102033.53
2023-02-06T05:37:43.399Z,102017.91
2023-02-06T05:38:30.864Z,102027.44
2023-02-06T05:39:17.901Z,102026.50
2023-02-06T05:40:06.731Z,102019.50
2023-02-06T05:40:53.738Z,102025.59
2023-02-06T05:41:40.872Z,102022.09
2023-02-06T05:42:28.049Z,102024.69
2023-02-06T05:43:15.126Z,102029.91
2023-02-06T05:44:02.217Z,102019.44
2023-02-06T05:44:49.280Z,102030.81
2023-02-06T05:45:36.488Z,102029.09
2023-02-06T05:46:24.012Z,102022.94
2023-02-06T05:47:11.316Z,102029.06
2023-02-06T05:47:58.394Z,102024.72
2023-02-06T05:48:45.470Z,102031.69
2023-02-06T05:49:32.536Z,102029.91
2023-02-06T05:50:20.436Z,102029.97
2023-02-06T05:51:07.736Z,102031.66
2023-02-06T05:51:54.812Z,102032.47
2023-02-06T05:52:42.283Z,102029.87
2023-02-06T05:53:29.642Z,102033.31
2023-02-06T05:54:18.626Z,102023.72
2023-02-06T05:55:05.993Z,102024.62
2023-02-06T05:55:53.158Z,102028.06
2023-02-06T05:56:40.211Z,102021.94
2023-02-06T05:57:27.432Z,102021.03
2023-02-06T05:58:14.615Z,102021.97
2023-02-06T05:59:01.696Z,102032.59
2023-02-06T05:59:48.760Z,102025.63
2023-02-06T06:00:35.805Z,102016.91
2023-02-06T06:01:22.900Z,102027.38
2023-02-06T06:02:10.221Z,102029.91
2023-02-06T06:02:57.273Z,102015.06
2023-02-06T06:03:44.420Z,102024.53
2023-02-06T06:04:31.633Z,102006.16
2023-02-06T06:05:18.798Z,102008.72
2023-02-06T06:06:06.785Z,102007.91
2023-02-06T06:06:53.738Z,102014.84
2023-02-06T06:07:41.123Z,102007.03
2023-02-06T06:08:28.122Z,102009.69
2023-02-06T06:09:15.261Z,102017.59
2023-02-06T06:10:02.731Z,102007.94
2023-02-06T06:10:53.370Z,102007.81
2023-02-06T06:11:40.261Z,102009.50
2023-02-06T06:12:27.310Z,102009.41
2023-02-06T06:13:14.612Z,102012.03
2023-02-06T06:14:01.792Z,102010.44
2023-02-06T06:14:49.164Z,102005.12
2023-02-06T06:15:36.642Z,102009.50
2023-02-06T06:16:24.100Z,102008.59
2023-02-06T06:17:11.347Z,102008.56
2023-02-06T06:17:58.714Z,102005.94
2023-02-06T06:18:45.924Z,102007.66
2023-02-06T06:19:33.036Z,102001.59
2023-02-06T06:20:20.236Z,102001.56
2023-02-06T06:21:07.333Z,102003.34
2023-02-06T06:21:55.596Z,102004.22
2023-02-06T06:22:44.138Z,102012.13
2023-02-06T06:23:31.200Z,102006.84
2023-02-06T06:24:18.304Z,102008.59
2023-02-06T06:25:08.035Z,102006.75
2023-02-06T06:25:55.250Z,102006.63
2023-02-06T06:26:42.436Z,102008.31
2023-02-06T06:27:29.504Z,102002.16
2023-02-06T06:28:17.244Z,102005.59
2023-02-06T06:29:05.345Z,102013.53
2023-02-06T06:29:55.320Z,102007.41
2023-02-06T06:30:42.638Z,102002.16
2023-02-06T06:31:29.779Z,102000.38
2023-02-06T06:32:16.889Z,101999.50
2023-02-06T06:33:04.190Z,101996.03
2023-02-06T06:33:51.656Z,101992.56
2023-02-06T06:34:38.775Z,102002.22
2023-02-06T06:35:26.375Z,101999.53
2023-02-06T06:36:14.564Z,102004.69
2023-02-06T06:37:03.723Z,102001.16
2023-02-06T06:37:52.771Z,102005.50
2023-02-06T06:38:39.873Z,102003.78
2023-02-06T06:39:26.906Z,101999.37
2023-02-06T06:40:14.612Z,101998.44
2023-02-06T06:41:01.642Z,102007.06
2023-02-06T06:41:48.679Z,102001.91
2023-02-06T06:42:35.865Z,102000.94
2023-02-06T06:43:23.066Z,102003.50
2023-02-06T06:44:10.152Z,102009.59
2023-02-06T06:44:57.261Z,102004.16
2023-02-06T06:45:44.400Z,102005.09
2023-02-06T06:46:31.690Z,102006.97
2023-02-06T06:47:18.858Z,102012.19
2023-02-06T06:48:06.206Z,102012.97
2023-02-06T06:48:54.092Z,102006.03
2023-02-06T06:49:41.129Z,102013.94
2023-02-06T06:50:28.345Z,102004.16
2023-02-06T06:51:15.436Z,102017.25
2023-02-06T06:52:02.669Z,102017.38
2023-02-06T06:52:49.742Z,102006.06
2023-02-06T06:53:40.572Z,102015.94
2023-02-06T06:54:27.784Z,102007.91
2023-02-06T06:55:14.770Z,102012.19
2023-02-06T06:56:06.648Z,102014.62
2023-02-06T06:56:53.742Z,102008.41
2023-02-06T06:57:40.838Z,102012.69
2023-02-06T06:58:27.936Z,102014.44
2023-02-06T06:59:15.081Z,102012.81
2023-02-06T07:00:02.488Z,102012.66
2023-02-06T07:00:49.700Z,102010.09
2023-02-06T07:01:36.870Z,102009.06
2023-02-06T07:02:24.101Z,102010.91
2023-02-06T07:03:12.345Z,102001.97
2023-02-06T07:04:00.344Z,101994.94
2023-02-06T07:04:48.610Z,101994.88
2023-02-06T07:05:36.485Z,101998.22
2023-02-06T07:06:23.809Z,101994.72
2023-02-06T07:07:10.997Z,101997.19
2023-02-06T07:07:58.161Z,101999.06
2023-02-06T07:08:45.279Z,101993.66
2023-02-06T07:09:32.469Z,101990.06
2023-02-06T07:10:19.749Z,101983.97
2023-02-06T07:11:06.803Z,101984.91
2023-02-06T07:11:54.303Z,101992.56
2023-02-06T07:12:41.480Z,101988.12
2023-02-06T07:13:28.644Z,101988.97
2023-02-06T07:14:16.032Z,101992.28
2023-02-06T07:15:03.315Z,101995.69
2023-02-06T07:15:50.733Z,101992.13
2023-02-06T07:16:38.392Z,101990.41
2023-02-06T07:17:25.521Z,101991.03
2023-02-06T07:18:12.701Z,101980.38
2023-02-06T07:18:59.992Z,101988.09
2023-02-06T07:19:48.413Z,101980.31
2023-02-06T07:20:38.270Z,101985.38
2023-02-06T07:21:25.577Z,101981.66
2023-02-06T07:22:12.944Z,101982.41
2023-02-06T07:23:02.108Z,101990.09
2023-02-06T07:23:49.307Z,101990.88
2023-02-06T07:24:36.547Z,101982.78
2023-02-06T07:25:24.036Z,101980.81
2023-02-06T07:26:11.285Z,101983.22
2023-02-06T07:26:58.384Z,101985.75
2023-02-06T07:27:45.476Z,101985.75
2023-02-06T07:28:33.576Z,101985.63
2023-02-06T07:29:20.696Z,101989.09
2023-02-06T07:30:08.552Z,101988.16
2023-02-06T07:30:55.907Z,101984.81
2023-02-06T07:31:43.171Z,101989.13
2023-02-06T07:32:30.363Z,101984.59
2023-02-06T07:33:17.388Z,101981.75
2023-02-06T07:34:04.887Z,101983.38
2023-02-06T07:34:54.125Z,101995.34
2023-02-06T07:35:43.149Z,101978.59
2023-02-06T07:36:30.688Z,101994.59
2023-02-06T07:37:17.977Z,101982.72
2023-02-06T07:38:07.391Z,101982.41
2023-02-06T07:38:54.507Z,101989.09
2023-02-06T07:39:41.693Z,101982.66
2023-02-06T07:40:39.664Z,101983.19
2023-02-06T07:41:31.575Z,101979.53
2023-02-06T07:42:19.205Z,101978.22
2023-02-06T07:43:09.390Z,101975.59
2023-02-06T07:43:56.407Z,101983.19
2023-02-06T07:44:43.592Z,101976.00
2023-02-06T07:45:30.660Z,101975.72
2023-02-06T07:46:17.804Z,101981.06
2023-02-06T07:47:06.032Z,101975.81
2023-02-06T07:47:54.129Z,101972.06
2023-02-06T07:48:41.277Z,101978.75
2023-02-06T07:49:28.430Z,101975.78
2023-02-06T07:50:15.607Z,101976.37
2023-02-06T07:51:07.703Z,101977.09
2023-02-06T07:51:54.811Z,101964.19
2023-02-06T07:52:41.891Z,101975.53
2023-02-06T07:53:29.133Z,101976.31
2023-02-06T07:54:16.557Z,101972.63
2023-02-06T07:55:03.692Z,101971.63
2023-02-06T07:55:50.878Z,101971.53
2023-02-06T07:56:38.555Z,101974.09
2023-02-06T07:57:25.822Z,101978.22
2023-02-06T07:58:12.914Z,101978.06
2023-02-06T07:59:00.217Z,101971.44
2023-02-06T07:59:47.505Z,101971.34
2023-02-06T08:00:34.646Z,101974.06
2023-02-06T08:01:22.497Z,101970.38
2023-02-06T08:02:12.312Z,101960.00
2023-02-06T08:02:59.667Z,101971.28
2023-02-06T08:03:46.723Z,101967.94
2023-02-06T08:04:35.901Z,101971.91
2023-02-06T08:05:22.994Z,101970.00
2023-02-06T08:06:16.304Z,101974.56
2023-02-06T08:07:04.872Z,101967.19
2023-02-06T08:07:52.478Z,101964.59
2023-02-06T08:08:39.565Z,101970.59
2023-02-06T08:09:27.013Z,101966.88
2023-02-06T08:10:14.095Z,101962.66
2023-02-06T08:11:05.428Z,101970.47
2023-02-06T08:11:52.544Z,101969.47
2023-02-06T08:12:39.575Z,101964.50
2023-02-06T08:13:26.645Z,101962.50
2023-02-06T08:14:14.090Z,101971.41
2023-02-06T08:15:01.175Z,101968.87
2023-02-06T08:15:48.460Z,101981.25
2023-02-06T08:16:37.727Z,101964.88
2023-02-06T08:17:25.145Z,101970.75
2023-02-06T08:18:12.470Z,101964.34
2023-02-06T08:18:59.682Z,101967.09
2023-02-06T08:19:46.890Z,101968.13
2023-02-06T08:20:34.087Z,101962.59
2023-02-06T08:21:23.351Z,101972.13
2023-02-06T08:22:10.745Z,101967.72
2023-02-06T08:22:58.016Z,101974.28
2023-02-06T08:23:45.506Z,101972.28
2023-02-06T08:24:32.928Z,101966.84
2023-02-06T08:25:20.135Z,101973.03
2023-02-06T08:26:10.749Z,101977.66
2023-02-06T08:26:57.678Z,101979.84
2023-02-06T08:27:46.894Z,101976.34
2023-02-06T08:28:37.706Z,101979.47
2023-02-06T08:29:26.595Z,101975.97
2023-02-06T08:30:14.123Z,101977.31
2023-02-06T08:31:02.710Z,101973.06
2023-02-06T08:31:49.948Z,101971.22
2023-02-06T08:32:37.255Z,101974.69
2023-02-06T08:33:24.752Z,101968.84
2023-02-06T08:34:14.255Z,101979.31
2023-02-06T08:35:01.314Z,101979.97
2023-02-06T08:35:48.536Z,101975.66
2023-02-06T08:36:35.776Z,101983.97
2023-02-06T08:37:24.674Z,101986.81
2023-02-06T08:38:12.265Z,101979.28
2023-02-06T08:39:00.865Z,101980.38
2023-02-06T08:39:48.371Z,101975.47
2023-02-06T08:40:35.735Z,101986.69
2023-02-06T08:41:30.650Z,101979.63
2023-02-06T08:42:18.345Z,101975.66
2023-02-06T08:43:05.389Z,101985.19
2023-02-06T08:43:55.624Z,101991.03
2023-02-06T08:44:42.726Z,101989.63
2023-02-06T08:45:29.776Z,101988.94
2023-02-06T08:46:18.935Z,101985.66
2023-02-06T08:47:10.516Z,101990.16
2023-02-06T08:47:59.220Z,101986.47
2023-02-06T08:48:46.878Z,101991.91
2023-02-06T08:49:33.974Z,101990.81
2023-02-06T08:50:23.106Z,101999.84
2023-02-06T08:51:11.353Z,101990.78
2023-02-06T08:51:59.995Z,101990.78
2023-02-06T08:52:47.029Z,101999.16
2023-02-06T08:53:34.369Z,101992.13
2023-02-06T08:54:23.616Z,101995.59
2023-02-06T08:55:11.079Z,101999.47
2023-02-06T08:56:05.263Z,101994.69
2023-02-06T08:56:54.109Z,101994.03
2023-02-06T08:57:41.846Z,101996.94
2023-02-06T08:58:29.299Z,101993.50
2023-02-06T08:59:17.758Z,102003.56
2023-02-06T09:00:05.548Z,101988.50
2023-02-06T09:00:54.011Z,101998.94
2023-02-06T09:01:41.406Z,101994.66
2023-02-06T09:02:28.704Z,101998.34
2023-02-06T09:03:15.847Z,101993.59
2023-02-06T09:04:06.637Z,101997.53
2023-02-06T09:04:53.642Z,101995.97
2023-02-06T09:05:40.640Z,101997.44
2023-02-06T09:06:28.430Z,102003.75
2023-02-06T09:07:17.307Z,102003.72
2023-02-06T09:08:04.739Z,102004.59
2023-02-06T09:08:52.629Z,102006.41
2023-02-06T09:09:39.656Z,102006.09
2023-02-06T09:10:30.397Z,102011.03
2023-02-06T09:11:19.293Z,102010.22
2023-02-06T09:12:06.519Z,102009.81
2023-02-06T09:12:55.941Z,102005.53
2023-02-06T09:13:44.523Z,102007.94
2023-02-06T09:14:31.860Z,102012.09
2023-02-06T09:15:18.902Z,102010.44
2023-02-06T09:16:06.940Z,102013.56
2023-02-06T09:16:54.123Z,102010.56
2023-02-06T09:17:41.357Z,102008.91
2023-02-06T09:18:28.593Z,102012.41
2023-02-06T09:19:15.547Z,102007.81
2023-02-06T09:20:03.732Z,102011.00
2023-02-06T09:20:51.997Z,102010.97
2023-02-06T09:21:39.260Z,102003.22
2023-02-06T09:22:28.294Z,102005.84
2023-02-06T09:23:16.115Z,102008.12
2023-02-06T09:24:07.920Z,102002.53
2023-02-06T09:24:54.906Z,102006.16